sensor_id;sensor_type;location;lat;lon;timestamp;P1;durP1;ratioP1;P2;durP2;ratioP2
74577;SDS011;63173;49.086;33.418;2023-04-06T00:00:54;8.95;;;3.90;;
74577;SDS011;63173;49.086;33.418;2023-04-06T00:03:20;8.95;;;3.65;;
74577;SDS011;63173;49.086;33.418;2023-04-06T00:05:46;8.90;;;4.28;;
74577;SDS011;63173;49.086;33.418;2023-04-06T00:08:12;7.30;;;3.70;;
74577;SDS011;63173;49.086;33.418;2023-04-06T00:10:37;10.15;;;3.80;;
74577;SDS011;63173;49.086;33.418;2023-04-06T00:13:03;14.40;;;3.53;;
74577;SDS011;63173;49.086;33.418;2023-04-06T00:15:30;7.25;;;3.58;;
74577;SDS011;63173;49.086;33.418;2023-04-06T00:17:56;8.48;;;3.40;;
74577;SDS011;63173;49.086;33.418;2023-04-06T00:20:22;8.10;;;3.67;;
74577;SDS011;63173;49.086;33.418;2023-04-06T00:22:47;9.05;;;3.42;;
74577;SDS011;63173;49.086;33.418;2023-04-06T00:25:13;9.40;;;4.13;;
74577;SDS011;63173;49.086;33.418;2023-04-06T00:27:40;9.80;;;4.82;;
74577;SDS011;63173;49.086;33.418;2023-04-06T00:30:07;11.55;;;4.53;;
74577;SDS011;63173;49.086;33.418;2023-04-06T00:32:36;9.52;;;4.43;;
74577;SDS011;63173;49.086;33.418;2023-04-06T00:35:05;6.75;;;4.03;;
74577;SDS011;63173;49.086;33.418;2023-04-06T00:37:31;11.68;;;4.70;;
74577;SDS011;63173;49.086;33.418;2023-04-06T00:39:57;9.52;;;4.22;;
74577;SDS011;63173;49.086;33.418;2023-04-06T00:42:23;9.70;;;4.38;;
74577;SDS011;63173;49.086;33.418;2023-04-06T00:44:52;11.93;;;4.60;;
74577;SDS011;63173;49.086;33.418;2023-04-06T00:47:19;10.93;;;4.72;;
74577;SDS011;63173;49.086;33.418;2023-04-06T00:49:45;12.15;;;4.93;;
74577;SDS011;63173;49.086;33.418;2023-04-06T00:52:11;11.80;;;5.20;;
74577;SDS011;63173;49.086;33.418;2023-04-06T00:54:36;9.30;;;4.60;;
74577;SDS011;63173;49.086;33.418;2023-04-06T00:57:02;10.57;;;4.47;;
74577;SDS011;63173;49.086;33.418;2023-04-06T00:59:27;11.18;;;5.28;;
74577;SDS011;63173;49.086;33.418;2023-04-06T01:01:53;13.82;;;5.10;;
74577;SDS011;63173;49.086;33.418;2023-04-06T01:04:19;10.45;;;4.88;;
74577;SDS011;63173;49.086;33.418;2023-04-06T01:06:47;16.27;;;5.38;;
74577;SDS011;63173;49.086;33.418;2023-04-06T01:09:13;14.18;;;5.65;;
74577;SDS011;63173;49.086;33.418;2023-04-06T01:11:39;12.07;;;5.38;;
74577;SDS011;63173;49.086;33.418;2023-04-06T01:14:04;12.48;;;5.55;;
74577;SDS011;63173;49.086;33.418;2023-04-06T01:16:30;13.57;;;5.78;;
74577;SDS011;63173;49.086;33.418;2023-04-06T01:18:56;12.30;;;5.72;;
74577;SDS011;63173;49.086;33.418;2023-04-06T01:21:21;20.67;;;5.40;;
74577;SDS011;63173;49.086;33.418;2023-04-06T01:23:47;14.75;;;5.90;;
74577;SDS011;63173;49.086;33.418;2023-04-06T01:26:12;11.50;;;5.57;;
74577;SDS011;63173;49.086;33.418;2023-04-06T01:28:38;13.65;;;5.50;;
74577;SDS011;63173;49.086;33.418;2023-04-06T01:31:06;12.23;;;5.97;;
74577;SDS011;63173;49.086;33.418;2023-04-06T01:33:32;13.27;;;5.88;;
74577;SDS011;63173;49.086;33.418;2023-04-06T01:35:58;15.38;;;5.72;;
74577;SDS011;63173;49.086;33.418;2023-04-06T01:38:24;9.98;;;5.40;;
74577;SDS011;63173;49.086;33.418;2023-04-06T01:40:49;12.80;;;6.07;;
74577;SDS011;63173;49.086;33.418;2023-04-06T01:43:15;15.52;;;6.85;;
74577;SDS011;63173;49.086;33.418;2023-04-06T01:45:40;20.17;;;7.43;;
74577;SDS011;63173;49.086;33.418;2023-04-06T01:48:06;20.13;;;7.82;;
74577;SDS011;63173;49.086;33.418;2023-04-06T01:50:32;18.13;;;8.00;;
74577;SDS011;63173;49.086;33.418;2023-04-06T01:52:58;19.73;;;8.90;;
74577;SDS011;63173;49.086;33.418;2023-04-06T01:55:23;17.42;;;8.48;;
74577;SDS011;63173;49.086;33.418;2023-04-06T01:57:49;21.23;;;9.30;;
74577;SDS011;63173;49.086;33.418;2023-04-06T02:00:15;18.67;;;8.45;;
74577;SDS011;63173;49.086;33.418;2023-04-06T02:02:41;20.15;;;8.23;;
74577;SDS011;63173;49.086;33.418;2023-04-06T02:05:07;17.10;;;7.97;;
74577;SDS011;63173;49.086;33.418;2023-04-06T02:07:33;22.15;;;8.73;;
74577;SDS011;63173;49.086;33.418;2023-04-06T02:09:58;17.88;;;8.00;;
74577;SDS011;63173;49.086;33.418;2023-04-06T02:12:24;16.40;;;7.25;;
74577;SDS011;63173;49.086;33.418;2023-04-06T02:14:49;13.23;;;7.03;;
74577;SDS011;63173;49.086;33.418;2023-04-06T02:17:15;14.50;;;7.43;;
74577;SDS011;63173;49.086;33.418;2023-04-06T02:19:41;18.00;;;7.40;;
74577;SDS011;63173;49.086;33.418;2023-04-06T02:22:06;16.73;;;7.00;;
74577;SDS011;63173;49.086;33.418;2023-04-06T02:24:32;18.80;;;8.27;;
74577;SDS011;63173;49.086;33.418;2023-04-06T02:26:57;20.23;;;7.75;;
74577;SDS011;63173;49.086;33.418;2023-04-06T02:29:23;22.75;;;8.07;;
74577;SDS011;63173;49.086;33.418;2023-04-06T02:31:48;22.92;;;9.55;;
74577;SDS011;63173;49.086;33.418;2023-04-06T02:34:14;22.27;;;9.20;;
74577;SDS011;63173;49.086;33.418;2023-04-06T02:36:45;29.50;;;10.70;;
74577;SDS011;63173;49.086;33.418;2023-04-06T02:39:11;36.25;;;13.18;;
74577;SDS011;63173;49.086;33.418;2023-04-06T02:41:37;23.95;;;11.52;;
74577;SDS011;63173;49.086;33.418;2023-04-06T02:44:03;26.80;;;12.10;;
74577;SDS011;63173;49.086;33.418;2023-04-06T02:46:29;28.77;;;11.18;;
74577;SDS011;63173;49.086;33.418;2023-04-06T02:48:54;32.50;;;11.93;;
74577;SDS011;63173;49.086;33.418;2023-04-06T02:51:20;32.63;;;12.57;;
74577;SDS011;63173;49.086;33.418;2023-04-06T02:53:46;27.52;;;11.85;;
74577;SDS011;63173;49.086;33.418;2023-04-06T02:56:11;25.40;;;11.85;;
74577;SDS011;63173;49.086;33.418;2023-04-06T02:58:37;26.45;;;10.90;;
74577;SDS011;63173;49.086;33.418;2023-04-06T03:01:03;28.15;;;13.25;;
74577;SDS011;63173;49.086;33.418;2023-04-06T03:03:28;25.65;;;12.07;;
74577;SDS011;63173;49.086;33.418;2023-04-06T03:05:55;32.08;;;13.43;;
74577;SDS011;63173;49.086;33.418;2023-04-06T03:08:23;36.40;;;14.65;;
74577;SDS011;63173;49.086;33.418;2023-04-06T03:10:49;32.95;;;14.43;;
74577;SDS011;63173;49.086;33.418;2023-04-06T03:13:15;32.33;;;14.48;;
74577;SDS011;63173;49.086;33.418;2023-04-06T03:15:40;36.88;;;14.63;;
74577;SDS011;63173;49.086;33.418;2023-04-06T03:18:06;33.03;;;14.85;;
74577;SDS011;63173;49.086;33.418;2023-04-06T03:20:31;30.48;;;15.73;;
74577;SDS011;63173;49.086;33.418;2023-04-06T03:22:57;34.13;;;16.63;;
74577;SDS011;63173;49.086;33.418;2023-04-06T03:25:23;35.63;;;15.60;;
74577;SDS011;63173;49.086;33.418;2023-04-06T03:27:48;38.30;;;16.20;;
74577;SDS011;63173;49.086;33.418;2023-04-06T03:30:14;36.10;;;16.13;;
74577;SDS011;63173;49.086;33.418;2023-04-06T03:32:42;36.50;;;15.55;;
74577;SDS011;63173;49.086;33.418;2023-04-06T03:35:10;34.35;;;15.90;;
74577;SDS011;63173;49.086;33.418;2023-04-06T03:37:36;43.58;;;18.33;;
74577;SDS011;63173;49.086;33.418;2023-04-06T03:40:02;34.85;;;16.83;;
74577;SDS011;63173;49.086;33.418;2023-04-06T03:42:28;41.65;;;17.77;;
74577;SDS011;63173;49.086;33.418;2023-04-06T03:44:53;39.15;;;18.52;;
74577;SDS011;63173;49.086;33.418;2023-04-06T03:47:19;40.53;;;18.15;;
74577;SDS011;63173;49.086;33.418;2023-04-06T03:49:45;44.70;;;17.75;;
74577;SDS011;63173;49.086;33.418;2023-04-06T03:52:10;38.85;;;18.15;;
74577;SDS011;63173;49.086;33.418;2023-04-06T03:54:36;39.95;;;18.33;;
74577;SDS011;63173;49.086;33.418;2023-04-06T03:57:01;46.10;;;19.13;;
74577;SDS011;63173;49.086;33.418;2023-04-06T03:59:27;50.13;;;19.60;;
74577;SDS011;63173;49.086;33.418;2023-04-06T04:01:52;41.97;;;18.05;;
74577;SDS011;63173;49.086;33.418;2023-04-06T04:04:18;40.40;;;20.35;;
74577;SDS011;63173;49.086;33.418;2023-04-06T04:06:44;41.53;;;17.58;;
74577;SDS011;63173;49.086;33.418;2023-04-06T04:09:09;45.17;;;17.30;;
74577;SDS011;63173;49.086;33.418;2023-04-06T04:11:35;47.58;;;17.25;;
74577;SDS011;63173;49.086;33.418;2023-04-06T04:14:00;43.92;;;15.73;;
74577;SDS011;63173;49.086;33.418;2023-04-06T04:16:25;43.03;;;18.65;;
74577;SDS011;63173;49.086;33.418;2023-04-06T04:18:51;40.83;;;16.13;;
74577;SDS011;63173;49.086;33.418;2023-04-06T04:21:16;46.10;;;15.20;;
74577;SDS011;63173;49.086;33.418;2023-04-06T04:23:42;43.58;;;16.17;;
74577;SDS011;63173;49.086;33.418;2023-04-06T04:26:07;37.47;;;15.45;;
74577;SDS011;63173;49.086;33.418;2023-04-06T04:28:33;36.85;;;14.55;;
74577;SDS011;63173;49.086;33.418;2023-04-06T04:30:58;39.35;;;15.02;;
74577;SDS011;63173;49.086;33.418;2023-04-06T04:33:24;40.85;;;15.90;;
74577;SDS011;63173;49.086;33.418;2023-04-06T04:35:50;40.75;;;14.63;;
74577;SDS011;63173;49.086;33.418;2023-04-06T04:38:15;34.75;;;14.75;;
74577;SDS011;63173;49.086;33.418;2023-04-06T04:40:41;39.40;;;15.70;;
74577;SDS011;63173;49.086;33.418;2023-04-06T04:43:06;40.25;;;15.80;;
74577;SDS011;63173;49.086;33.418;2023-04-06T04:45:31;35.47;;;15.30;;
74577;SDS011;63173;49.086;33.418;2023-04-06T04:47:57;42.75;;;16.00;;
74577;SDS011;63173;49.086;33.418;2023-04-06T04:50:23;43.55;;;15.52;;
74577;SDS011;63173;49.086;33.418;2023-04-06T04:52:48;43.58;;;17.70;;
74577;SDS011;63173;49.086;33.418;2023-04-06T04:55:14;43.10;;;17.98;;
74577;SDS011;63173;49.086;33.418;2023-04-06T04:57:39;43.85;;;16.67;;
74577;SDS011;63173;49.086;33.418;2023-04-06T05:00:05;41.63;;;17.00;;
74577;SDS011;63173;49.086;33.418;2023-04-06T05:02:31;44.10;;;16.80;;
74577;SDS011;63173;49.086;33.418;2023-04-06T05:04:56;41.92;;;16.55;;
74577;SDS011;63173;49.086;33.418;2023-04-06T05:07:22;41.83;;;17.60;;
74577;SDS011;63173;49.086;33.418;2023-04-06T05:09:47;38.42;;;15.63;;
74577;SDS011;63173;49.086;33.418;2023-04-06T05:12:13;42.85;;;16.13;;
74577;SDS011;63173;49.086;33.418;2023-04-06T05:14:38;38.90;;;15.90;;
74577;SDS011;63173;49.086;33.418;2023-04-06T05:17:04;35.72;;;15.60;;
74577;SDS011;63173;49.086;33.418;2023-04-06T05:19:30;38.35;;;16.35;;
74577;SDS011;63173;49.086;33.418;2023-04-06T05:21:55;41.65;;;15.82;;
74577;SDS011;63173;49.086;33.418;2023-04-06T05:24:21;40.67;;;16.17;;
74577;SDS011;63173;49.086;33.418;2023-04-06T05:26:47;43.42;;;16.85;;
74577;SDS011;63173;49.086;33.418;2023-04-06T05:29:13;45.35;;;17.80;;
74577;SDS011;63173;49.086;33.418;2023-04-06T05:31:38;45.50;;;16.95;;
74577;SDS011;63173;49.086;33.418;2023-04-06T05:34:04;49.25;;;17.70;;
74577;SDS011;63173;49.086;33.418;2023-04-06T05:36:29;41.08;;;15.95;;
74577;SDS011;63173;49.086;33.418;2023-04-06T05:38:57;44.83;;;17.75;;
74577;SDS011;63173;49.086;33.418;2023-04-06T05:41:23;51.08;;;18.17;;
74577;SDS011;63173;49.086;33.418;2023-04-06T05:43:48;47.28;;;18.35;;
74577;SDS011;63173;49.086;33.418;2023-04-06T05:46:14;58.63;;;21.02;;
74577;SDS011;63173;49.086;33.418;2023-04-06T05:48:39;56.67;;;20.63;;
74577;SDS011;63173;49.086;33.418;2023-04-06T05:51:05;56.80;;;22.38;;
74577;SDS011;63173;49.086;33.418;2023-04-06T05:53:31;53.67;;;20.50;;
74577;SDS011;63173;49.086;33.418;2023-04-06T05:55:57;53.30;;;20.23;;
74577;SDS011;63173;49.086;33.418;2023-04-06T06:00:55;57.00;;;21.92;;
74577;SDS011;63173;49.086;33.418;2023-04-06T06:03:21;67.55;;;23.08;;
74577;SDS011;63173;49.086;33.418;2023-04-06T06:05:47;61.35;;;23.38;;
74577;SDS011;63173;49.086;33.418;2023-04-06T06:08:13;65.80;;;23.58;;
74577;SDS011;63173;49.086;33.418;2023-04-06T06:10:38;73.20;;;22.35;;
74577;SDS011;63173;49.086;33.418;2023-04-06T06:13:05;61.92;;;21.42;;
74577;SDS011;63173;49.086;33.418;2023-04-06T06:15:30;56.08;;;20.02;;
74577;SDS011;63173;49.086;33.418;2023-04-06T06:17:56;60.58;;;23.52;;
74577;SDS011;63173;49.086;33.418;2023-04-06T06:20:21;51.50;;;19.80;;
74577;SDS011;63173;49.086;33.418;2023-04-06T06:22:47;45.63;;;18.40;;
74577;SDS011;63173;49.086;33.418;2023-04-06T06:25:12;53.72;;;18.13;;
74577;SDS011;63173;49.086;33.418;2023-04-06T06:27:38;51.17;;;19.50;;
74577;SDS011;63173;49.086;33.418;2023-04-06T06:30:04;51.65;;;18.35;;
74577;SDS011;63173;49.086;33.418;2023-04-06T06:32:31;55.05;;;19.52;;
74577;SDS011;63173;49.086;33.418;2023-04-06T06:34:57;52.85;;;17.50;;
74577;SDS011;63173;49.086;33.418;2023-04-06T06:37:22;53.25;;;17.40;;
74577;SDS011;63173;49.086;33.418;2023-04-06T06:39:48;49.53;;;17.67;;
74577;SDS011;63173;49.086;33.418;2023-04-06T06:42:13;44.75;;;16.75;;
74577;SDS011;63173;49.086;33.418;2023-04-06T06:44:39;36.25;;;15.30;;
74577;SDS011;63173;49.086;33.418;2023-04-06T06:47:04;40.72;;;14.32;;
74577;SDS011;63173;49.086;33.418;2023-04-06T06:49:30;39.40;;;13.98;;
74577;SDS011;63173;49.086;33.418;2023-04-06T06:51:55;39.10;;;14.05;;
74577;SDS011;63173;49.086;33.418;2023-04-06T06:54:21;42.88;;;14.50;;
74577;SDS011;63173;49.086;33.418;2023-04-06T06:56:46;37.53;;;14.05;;
74577;SDS011;63173;49.086;33.418;2023-04-06T06:59:12;35.92;;;13.52;;
74577;SDS011;63173;49.086;33.418;2023-04-06T07:01:37;38.97;;;13.75;;
74577;SDS011;63173;49.086;33.418;2023-04-06T07:04:03;38.40;;;13.60;;
74577;SDS011;63173;49.086;33.418;2023-04-06T07:06:28;39.33;;;16.80;;
74577;SDS011;63173;49.086;33.418;2023-04-06T07:08:54;28.50;;;10.88;;
74577;SDS011;63173;49.086;33.418;2023-04-06T07:11:19;20.27;;;9.40;;
74577;SDS011;63173;49.086;33.418;2023-04-06T07:13:45;22.38;;;9.63;;
74577;SDS011;63173;49.086;33.418;2023-04-06T07:16:11;23.02;;;9.10;;
74577;SDS011;63173;49.086;33.418;2023-04-06T07:18:36;22.98;;;10.27;;
74577;SDS011;63173;49.086;33.418;2023-04-06T07:21:02;26.20;;;9.45;;
74577;SDS011;63173;49.086;33.418;2023-04-06T07:23:27;26.10;;;8.02;;
74577;SDS011;63173;49.086;33.418;2023-04-06T07:25:53;21.88;;;9.10;;
74577;SDS011;63173;49.086;33.418;2023-04-06T07:28:19;17.63;;;7.70;;
74577;SDS011;63173;49.086;33.418;2023-04-06T07:30:45;20.88;;;7.75;;
74577;SDS011;63173;49.086;33.418;2023-04-06T07:33:11;19.92;;;7.45;;
74577;SDS011;63173;49.086;33.418;2023-04-06T07:35:37;20.95;;;8.00;;
74577;SDS011;63173;49.086;33.418;2023-04-06T07:38:03;29.90;;;12.88;;
74577;SDS011;63173;49.086;33.418;2023-04-06T07:40:28;21.08;;;8.52;;
74577;SDS011;63173;49.086;33.418;2023-04-06T07:42:54;16.02;;;7.43;;
74577;SDS011;63173;49.086;33.418;2023-04-06T07:45:20;20.42;;;7.53;;
74577;SDS011;63173;49.086;33.418;2023-04-06T07:47:45;12.35;;;6.40;;
74577;SDS011;63173;49.086;33.418;2023-04-06T07:50:12;17.35;;;7.60;;
74577;SDS011;63173;49.086;33.418;2023-04-06T07:52:38;14.85;;;7.10;;
74577;SDS011;63173;49.086;33.418;2023-04-06T07:55:04;18.17;;;7.15;;
74577;SDS011;63173;49.086;33.418;2023-04-06T07:57:30;15.65;;;6.82;;
74577;SDS011;63173;49.086;33.418;2023-04-06T07:59:55;19.60;;;7.80;;
74577;SDS011;63173;49.086;33.418;2023-04-06T08:02:21;19.75;;;7.28;;
74577;SDS011;63173;49.086;33.418;2023-04-06T08:04:47;17.60;;;7.10;;
74577;SDS011;63173;49.086;33.418;2023-04-06T08:07:12;16.33;;;7.38;;
74577;SDS011;63173;49.086;33.418;2023-04-06T08:09:38;15.48;;;7.03;;
74577;SDS011;63173;49.086;33.418;2023-04-06T08:12:03;19.52;;;7.53;;
74577;SDS011;63173;49.086;33.418;2023-04-06T08:14:29;13.00;;;6.88;;
74577;SDS011;63173;49.086;33.418;2023-04-06T08:16:55;20.30;;;8.98;;
74577;SDS011;63173;49.086;33.418;2023-04-06T08:19:20;19.35;;;7.78;;
74577;SDS011;63173;49.086;33.418;2023-04-06T08:21:46;21.63;;;8.32;;
74577;SDS011;63173;49.086;33.418;2023-04-06T08:24:12;17.58;;;7.32;;
74577;SDS011;63173;49.086;33.418;2023-04-06T08:26:38;19.58;;;7.13;;
74577;SDS011;63173;49.086;33.418;2023-04-06T08:29:04;17.33;;;7.85;;
74577;SDS011;63173;49.086;33.418;2023-04-06T08:31:32;14.00;;;6.50;;
74577;SDS011;63173;49.086;33.418;2023-04-06T08:33:58;18.17;;;7.93;;
74577;SDS011;63173;49.086;33.418;2023-04-06T08:36:24;19.02;;;7.18;;
74577;SDS011;63173;49.086;33.418;2023-04-06T08:38:49;19.52;;;7.05;;
74577;SDS011;63173;49.086;33.418;2023-04-06T08:41:15;14.65;;;6.45;;
74577;SDS011;63173;49.086;33.418;2023-04-06T08:43:44;14.30;;;6.75;;
74577;SDS011;63173;49.086;33.418;2023-04-06T08:46:12;15.85;;;7.10;;
74577;SDS011;63173;49.086;33.418;2023-04-06T08:48:38;17.48;;;6.80;;
74577;SDS011;63173;49.086;33.418;2023-04-06T08:51:05;15.40;;;7.00;;
74577;SDS011;63173;49.086;33.418;2023-04-06T08:53:31;14.35;;;7.15;;
74577;SDS011;63173;49.086;33.418;2023-04-06T08:55:56;19.95;;;7.93;;
74577;SDS011;63173;49.086;33.418;2023-04-06T08:58:24;19.58;;;8.82;;
74577;SDS011;63173;49.086;33.418;2023-04-06T09:00:53;19.30;;;8.55;;
74577;SDS011;63173;49.086;33.418;2023-04-06T09:03:19;26.52;;;11.75;;
74577;SDS011;63173;49.086;33.418;2023-04-06T09:05:46;17.70;;;8.88;;
74577;SDS011;63173;49.086;33.418;2023-04-06T09:08:12;15.32;;;8.57;;
74577;SDS011;63173;49.086;33.418;2023-04-06T09:10:40;17.73;;;8.10;;
74577;SDS011;63173;49.086;33.418;2023-04-06T09:13:06;27.15;;;9.70;;
74577;SDS011;63173;49.086;33.418;2023-04-06T09:15:32;19.30;;;8.75;;
74577;SDS011;63173;49.086;33.418;2023-04-06T09:17:57;15.95;;;8.10;;
74577;SDS011;63173;49.086;33.418;2023-04-06T09:20:23;16.15;;;8.02;;
74577;SDS011;63173;49.086;33.418;2023-04-06T09:22:51;16.80;;;6.95;;
74577;SDS011;63173;49.086;33.418;2023-04-06T09:25:20;12.23;;;5.43;;
74577;SDS011;63173;49.086;33.418;2023-04-06T09:28:01;12.90;;;5.30;;
74577;SDS011;63173;49.086;33.418;2023-04-06T09:30:28;17.58;;;6.45;;
74577;SDS011;63173;49.086;33.418;2023-04-06T09:32:55;13.63;;;5.53;;
74577;SDS011;63173;49.086;33.418;2023-04-06T09:35:22;13.07;;;6.50;;
74577;SDS011;63173;49.086;33.418;2023-04-06T09:37:51;14.35;;;6.57;;
74577;SDS011;63173;49.086;33.418;2023-04-06T09:40:17;17.23;;;7.53;;
74577;SDS011;63173;49.086;33.418;2023-04-06T09:42:47;18.25;;;7.30;;
74577;SDS011;63173;49.086;33.418;2023-04-06T09:45:17;17.58;;;8.85;;
74577;SDS011;63173;49.086;33.418;2023-04-06T09:47:43;20.30;;;8.23;;
74577;SDS011;63173;49.086;33.418;2023-04-06T09:50:11;24.30;;;9.50;;
74577;SDS011;63173;49.086;33.418;2023-04-06T09:52:40;22.33;;;9.90;;
74577;SDS011;63173;49.086;33.418;2023-04-06T09:55:08;21.95;;;10.73;;
74577;SDS011;63173;49.086;33.418;2023-04-06T10:00:09;22.75;;;10.38;;
74577;SDS011;63173;49.086;33.418;2023-04-06T10:05:19;27.38;;;10.07;;
74577;SDS011;63173;49.086;33.418;2023-04-06T10:07:45;26.10;;;9.88;;
74577;SDS011;63173;49.086;33.418;2023-04-06T10:10:17;18.95;;;8.82;;
74577;SDS011;63173;49.086;33.418;2023-04-06T10:12:42;25.15;;;9.93;;
74577;SDS011;63173;49.086;33.418;2023-04-06T10:15:09;20.08;;;8.65;;
74577;SDS011;63173;49.086;33.418;2023-04-06T10:17:35;22.67;;;7.57;;
74577;SDS011;63173;49.086;33.418;2023-04-06T10:20:09;14.60;;;7.32;;
74577;SDS011;63173;49.086;33.418;2023-04-06T10:22:42;26.02;;;8.95;;
74577;SDS011;63173;49.086;33.418;2023-04-06T10:25:25;19.75;;;8.20;;
74577;SDS011;63173;49.086;33.418;2023-04-06T10:28:02;23.23;;;8.73;;
74577;SDS011;63173;49.086;33.418;2023-04-06T10:30:32;22.95;;;8.85;;
74577;SDS011;63173;49.086;33.418;2023-04-06T10:32:58;23.42;;;9.23;;
74577;SDS011;63173;49.086;33.418;2023-04-06T10:35:23;25.55;;;9.18;;
74577;SDS011;63173;49.086;33.418;2023-04-06T10:37:51;23.17;;;9.82;;
74577;SDS011;63173;49.086;33.418;2023-04-06T10:40:27;26.23;;;10.18;;
74577;SDS011;63173;49.086;33.418;2023-04-06T10:42:54;30.50;;;11.02;;
74577;SDS011;63173;49.086;33.418;2023-04-06T10:45:25;22.13;;;10.07;;
74577;SDS011;63173;49.086;33.418;2023-04-06T10:47:54;28.50;;;11.25;;
74577;SDS011;63173;49.086;33.418;2023-04-06T10:50:21;40.38;;;14.02;;
74577;SDS011;63173;49.086;33.418;2023-04-06T10:52:47;32.58;;;12.32;;
74577;SDS011;63173;49.086;33.418;2023-04-06T10:55:23;38.45;;;14.15;;
74577;SDS011;63173;49.086;33.418;2023-04-06T10:57:49;33.10;;;12.93;;
74577;SDS011;63173;49.086;33.418;2023-04-06T11:00:15;36.47;;;13.68;;
74577;SDS011;63173;49.086;33.418;2023-04-06T11:02:40;31.58;;;13.65;;
74577;SDS011;63173;49.086;33.418;2023-04-06T11:05:06;40.60;;;15.05;;
74577;SDS011;63173;49.086;33.418;2023-04-06T11:07:32;45.58;;;15.63;;
74577;SDS011;63173;49.086;33.418;2023-04-06T11:09:58;39.20;;;17.20;;
74577;SDS011;63173;49.086;33.418;2023-04-06T11:12:24;36.13;;;15.27;;
74577;SDS011;63173;49.086;33.418;2023-04-06T11:14:57;30.27;;;12.80;;
74577;SDS011;63173;49.086;33.418;2023-04-06T11:17:31;29.85;;;12.48;;
74577;SDS011;63173;49.086;33.418;2023-04-06T11:19:58;34.47;;;13.25;;
74577;SDS011;63173;49.086;33.418;2023-04-06T11:22:25;29.30;;;11.55;;
74577;SDS011;63173;49.086;33.418;2023-04-06T11:24:51;25.45;;;10.88;;
74577;SDS011;63173;49.086;33.418;2023-04-06T11:27:17;26.45;;;10.15;;
74577;SDS011;63173;49.086;33.418;2023-04-06T11:29:44;18.35;;;9.18;;
74577;SDS011;63173;49.086;33.418;2023-04-06T11:32:21;17.25;;;8.23;;
74577;SDS011;63173;49.086;33.418;2023-04-06T11:34:47;17.35;;;7.70;;
74577;SDS011;63173;49.086;33.418;2023-04-06T11:37:13;20.40;;;7.85;;
74577;SDS011;63173;49.086;33.418;2023-04-06T11:42:25;13.93;;;5.40;;
74577;SDS011;63173;49.086;33.418;2023-04-06T11:44:53;9.75;;;5.00;;
74577;SDS011;63173;49.086;33.418;2023-04-06T11:47:26;8.65;;;4.30;;
74577;SDS011;63173;49.086;33.418;2023-04-06T11:49:53;10.40;;;4.50;;
74577;SDS011;63173;49.086;33.418;2023-04-06T11:52:25;8.02;;;3.70;;
74577;SDS011;63173;49.086;33.418;2023-04-06T11:54:52;6.22;;;3.33;;
74577;SDS011;63173;49.086;33.418;2023-04-06T11:57:19;13.30;;;6.75;;
74577;SDS011;63173;49.086;33.418;2023-04-06T11:59:46;12.25;;;3.10;;
74577;SDS011;63173;49.086;33.418;2023-04-06T12:02:12;7.13;;;3.28;;
74577;SDS011;63173;49.086;33.418;2023-04-06T12:04:38;12.50;;;3.08;;
74577;SDS011;63173;49.086;33.418;2023-04-06T12:07:03;7.65;;;2.63;;
74577;SDS011;63173;49.086;33.418;2023-04-06T12:09:29;6.88;;;3.63;;
74577;SDS011;63173;49.086;33.418;2023-04-06T12:11:56;9.55;;;2.10;;
74577;SDS011;63173;49.086;33.418;2023-04-06T12:14:21;5.75;;;2.35;;
74577;SDS011;63173;49.086;33.418;2023-04-06T12:16:47;3.97;;;2.10;;
74577;SDS011;63173;49.086;33.418;2023-04-06T12:19:13;8.00;;;2.33;;
74577;SDS011;63173;49.086;33.418;2023-04-06T12:21:38;5.63;;;2.03;;
74577;SDS011;63173;49.086;33.418;2023-04-06T12:24:05;5.57;;;2.30;;
74577;SDS011;63173;49.086;33.418;2023-04-06T12:26:31;7.18;;;3.72;;
74577;SDS011;63173;49.086;33.418;2023-04-06T12:28:57;4.97;;;2.17;;
74577;SDS011;63173;49.086;33.418;2023-04-06T12:31:31;3.38;;;1.42;;
74577;SDS011;63173;49.086;33.418;2023-04-06T12:33:57;2.67;;;1.42;;
74577;SDS011;63173;49.086;33.418;2023-04-06T12:36:22;2.25;;;1.23;;
74577;SDS011;63173;49.086;33.418;2023-04-06T12:38:48;4.38;;;1.20;;
74577;SDS011;63173;49.086;33.418;2023-04-06T12:41:14;7.15;;;1.70;;
74577;SDS011;63173;49.086;33.418;2023-04-06T12:43:43;5.85;;;2.58;;
74577;SDS011;63173;49.086;33.418;2023-04-06T12:46:10;2.67;;;1.20;;
74577;SDS011;63173;49.086;33.418;2023-04-06T12:48:36;3.90;;;1.30;;
74577;SDS011;63173;49.086;33.418;2023-04-06T12:51:03;2.47;;;1.58;;
74577;SDS011;63173;49.086;33.418;2023-04-06T12:53:29;2.33;;;1.13;;
74577;SDS011;63173;49.086;33.418;2023-04-06T12:55:55;2.03;;;1.20;;
74577;SDS011;63173;49.086;33.418;2023-04-06T12:58:22;2.58;;;1.25;;
74577;SDS011;63173;49.086;33.418;2023-04-06T13:00:48;4.65;;;1.20;;
74577;SDS011;63173;49.086;33.418;2023-04-06T13:03:15;2.42;;;1.30;;
74577;SDS011;63173;49.086;33.418;2023-04-06T13:05:44;5.03;;;1.40;;
74577;SDS011;63173;49.086;33.418;2023-04-06T13:08:11;3.45;;;1.30;;
74577;SDS011;63173;49.086;33.418;2023-04-06T13:10:37;3.05;;;1.45;;
74577;SDS011;63173;49.086;33.418;2023-04-06T13:13:02;3.67;;;1.77;;
74577;SDS011;63173;49.086;33.418;2023-04-06T13:15:28;4.95;;;1.30;;
74577;SDS011;63173;49.086;33.418;2023-04-06T13:17:54;3.28;;;1.25;;
74577;SDS011;63173;49.086;33.418;2023-04-06T13:20:19;1.80;;;1.00;;
74577;SDS011;63173;49.086;33.418;2023-04-06T13:22:45;1.58;;;0.90;;
74577;SDS011;63173;49.086;33.418;2023-04-06T13:25:10;4.63;;;1.15;;
74577;SDS011;63173;49.086;33.418;2023-04-06T13:27:36;6.63;;;1.70;;
74577;SDS011;63173;49.086;33.418;2023-04-06T13:30:02;2.80;;;1.23;;
74577;SDS011;63173;49.086;33.418;2023-04-06T13:32:28;2.20;;;1.00;;
74577;SDS011;63173;49.086;33.418;2023-04-06T13:34:57;3.55;;;1.10;;
74577;SDS011;63173;49.086;33.418;2023-04-06T13:37:22;3.88;;;1.65;;
74577;SDS011;63173;49.086;33.418;2023-04-06T13:39:48;1.95;;;1.05;;
74577;SDS011;63173;49.086;33.418;2023-04-06T13:42:13;11.27;;;1.33;;
74577;SDS011;63173;49.086;33.418;2023-04-06T13:44:39;3.92;;;1.20;;
74577;SDS011;63173;49.086;33.418;2023-04-06T13:47:04;2.42;;;1.15;;
74577;SDS011;63173;49.086;33.418;2023-04-06T13:49:30;2.58;;;1.45;;
74577;SDS011;63173;49.086;33.418;2023-04-06T13:51:57;3.38;;;1.05;;
74577;SDS011;63173;49.086;33.418;2023-04-06T13:54:23;1.85;;;1.02;;
74577;SDS011;63173;49.086;33.418;2023-04-06T13:56:48;1.67;;;0.93;;
74577;SDS011;63173;49.086;33.418;2023-04-06T13:59:13;4.82;;;1.10;;
74577;SDS011;63173;49.086;33.418;2023-04-06T14:01:39;4.10;;;1.50;;
74577;SDS011;63173;49.086;33.418;2023-04-06T14:04:05;3.88;;;1.83;;
74577;SDS011;63173;49.086;33.418;2023-04-06T14:06:30;6.03;;;1.98;;
74577;SDS011;63173;49.086;33.418;2023-04-06T14:08:56;10.18;;;2.35;;
74577;SDS011;63173;49.086;33.418;2023-04-06T14:11:22;3.33;;;2.10;;
74577;SDS011;63173;49.086;33.418;2023-04-06T14:13:47;5.20;;;2.10;;
74577;SDS011;63173;49.086;33.418;2023-04-06T14:16:12;7.93;;;2.13;;
74577;SDS011;63173;49.086;33.418;2023-04-06T14:18:38;6.75;;;1.88;;
74577;SDS011;63173;49.086;33.418;2023-04-06T14:21:03;3.05;;;1.60;;
74577;SDS011;63173;49.086;33.418;2023-04-06T14:23:29;3.67;;;1.67;;